sensor_id;sensor_type;location;lat;lon;timestamp;P1;durP1;ratioP1;P2;durP2;ratioP2
71042;SDS011;58696;52.134;5.500;2024-02-21T00:00:33;6.63;;;2.28;;
71042;SDS011;58696;52.134;5.500;2024-02-21T00:03:00;8.52;;;2.83;;
71042;SDS011;58696;52.134;5.500;2024-02-21T00:05:30;7.57;;;2.72;;
71042;SDS011;58696;52.134;5.500;2024-02-21T00:08:02;5.63;;;2.22;;
71042;SDS011;58696;52.134;5.500;2024-02-21T00:10:33;13.52;;;3.45;;
71042;SDS011;58696;52.134;5.500;2024-02-21T00:13:02;9.15;;;2.63;;
71042;SDS011;58696;52.134;5.500;2024-02-21T00:15:32;7.78;;;2.90;;
71042;SDS011;58696;52.134;5.500;2024-02-21T00:18:01;12.18;;;3.15;;
71042;SDS011;58696;52.134;5.500;2024-02-21T00:20:28;8.23;;;2.67;;
71042;SDS011;58696;52.134;5.500;2024-02-21T00:22:56;6.35;;;2.42;;
71042;SDS011;58696;52.134;5.500;2024-02-21T00:25:26;8.13;;;2.65;;
71042;SDS011;58696;52.134;5.500;2024-02-21T00:27:55;6.90;;;2.75;;
71042;SDS011;58696;52.134;5.500;2024-02-21T00:30:21;11.00;;;2.60;;
71042;SDS011;58696;52.134;5.500;2024-02-21T00:32:50;7.53;;;2.25;;
71042;SDS011;58696;52.134;5.500;2024-02-21T00:35:17;7.53;;;2.63;;
71042;SDS011;58696;52.134;5.500;2024-02-21T00:37:48;14.30;;;2.95;;
71042;SDS011;58696;52.134;5.500;2024-02-21T00:40:17;14.02;;;2.83;;
71042;SDS011;58696;52.134;5.500;2024-02-21T00:42:48;9.80;;;2.85;;
71042;SDS011;58696;52.134;5.500;2024-02-21T00:45:15;12.55;;;2.50;;
71042;SDS011;58696;52.134;5.500;2024-02-21T00:47:41;7.97;;;2.60;;
71042;SDS011;58696;52.134;5.500;2024-02-21T00:50:10;6.72;;;2.65;;
71042;SDS011;58696;52.134;5.500;2024-02-21T00:52:39;6.57;;;2.10;;
71042;SDS011;58696;52.134;5.500;2024-02-21T00:55:06;11.80;;;2.35;;
71042;SDS011;58696;52.134;5.500;2024-02-21T00:57:33;7.53;;;2.83;;
71042;SDS011;58696;52.134;5.500;2024-02-21T01:00:02;12.70;;;2.60;;
71042;SDS011;58696;52.134;5.500;2024-02-21T01:02:32;7.45;;;2.38;;
71042;SDS011;58696;52.134;5.500;2024-02-21T01:04:59;12.15;;;3.35;;
71042;SDS011;58696;52.134;5.500;2024-02-21T01:07:25;9.95;;;2.75;;
71042;SDS011;58696;52.134;5.500;2024-02-21T01:09:52;10.02;;;2.40;;
71042;SDS011;58696;52.134;5.500;2024-02-21T01:12:21;13.50;;;3.03;;
71042;SDS011;58696;52.134;5.500;2024-02-21T01:14:51;5.38;;;2.15;;
71042;SDS011;58696;52.134;5.500;2024-02-21T01:17:17;9.48;;;2.60;;
71042;SDS011;58696;52.134;5.500;2024-02-21T01:19:46;9.70;;;2.08;;
71042;SDS011;58696;52.134;5.500;2024-02-21T01:22:13;11.57;;;2.80;;
71042;SDS011;58696;52.134;5.500;2024-02-21T01:24:41;6.63;;;2.50;;
71042;SDS011;58696;52.134;5.500;2024-02-21T01:27:10;6.60;;;2.58;;
71042;SDS011;58696;52.134;5.500;2024-02-21T01:29:36;11.20;;;2.45;;
71042;SDS011;58696;52.134;5.500;2024-02-21T01:32:03;9.10;;;2.90;;
71042;SDS011;58696;52.134;5.500;2024-02-21T01:34:34;13.23;;;3.15;;
71042;SDS011;58696;52.134;5.500;2024-02-21T01:37:04;6.30;;;2.55;;
71042;SDS011;58696;52.134;5.500;2024-02-21T01:39:33;6.63;;;2.70;;
71042;SDS011;58696;52.134;5.500;2024-02-21T01:42:00;8.32;;;3.00;;
71042;SDS011;58696;52.134;5.500;2024-02-21T01:44:26;16.13;;;3.35;;
71042;SDS011;58696;52.134;5.500;2024-02-21T01:46:55;10.05;;;3.10;;
71042;SDS011;58696;52.134;5.500;2024-02-21T01:49:24;9.63;;;2.95;;
71042;SDS011;58696;52.134;5.500;2024-02-21T01:51:51;6.82;;;3.00;;
71042;SDS011;58696;52.134;5.500;2024-02-21T01:54:21;11.93;;;3.00;;
71042;SDS011;58696;52.134;5.500;2024-02-21T01:56:48;6.80;;;2.88;;
71042;SDS011;58696;52.134;5.500;2024-02-21T01:59:15;11.15;;;3.08;;
71042;SDS011;58696;52.134;5.500;2024-02-21T02:01:44;11.55;;;3.13;;
71042;SDS011;58696;52.134;5.500;2024-02-21T02:06:42;6.90;;;2.50;;
71042;SDS011;58696;52.134;5.500;2024-02-21T02:09:09;9.45;;;3.20;;
71042;SDS011;58696;52.134;5.500;2024-02-21T02:11:38;11.25;;;3.28;;
71042;SDS011;58696;52.134;5.500;2024-02-21T02:14:05;10.50;;;3.00;;
71042;SDS011;58696;52.134;5.500;2024-02-21T02:16:32;13.75;;;3.80;;
71042;SDS011;58696;52.134;5.500;2024-02-21T02:19:03;9.60;;;3.15;;
71042;SDS011;58696;52.134;5.500;2024-02-21T02:21:30;10.15;;;3.28;;
71042;SDS011;58696;52.134;5.500;2024-02-21T02:24:05;8.63;;;3.65;;
71042;SDS011;58696;52.134;5.500;2024-02-21T02:26:32;8.60;;;3.35;;
71042;SDS011;58696;52.134;5.500;2024-02-21T02:29:01;13.40;;;3.60;;
71042;SDS011;58696;52.134;5.500;2024-02-21T02:31:28;12.10;;;3.20;;
71042;SDS011;58696;52.134;5.500;2024-02-21T02:33:57;5.57;;;2.80;;
71042;SDS011;58696;52.134;5.500;2024-02-21T02:36:24;13.95;;;3.85;;
71042;SDS011;58696;52.134;5.500;2024-02-21T02:38:53;10.68;;;3.72;;
71042;SDS011;58696;52.134;5.500;2024-02-21T02:41:22;5.38;;;2.90;;
71042;SDS011;58696;52.134;5.500;2024-02-21T02:43:53;9.98;;;3.30;;
71042;SDS011;58696;52.134;5.500;2024-02-21T02:46:25;9.10;;;3.72;;
71042;SDS011;58696;52.134;5.500;2024-02-21T02:48:51;11.07;;;3.42;;
71042;SDS011;58696;52.134;5.500;2024-02-21T02:51:20;8.88;;;3.78;;
71042;SDS011;58696;52.134;5.500;2024-02-21T02:53:49;13.07;;;3.30;;
71042;SDS011;58696;52.134;5.500;2024-02-21T02:56:16;14.35;;;2.90;;
71042;SDS011;58696;52.134;5.500;2024-02-21T02:58:43;10.75;;;3.08;;
71042;SDS011;58696;52.134;5.500;2024-02-21T03:01:10;9.45;;;3.47;;
71042;SDS011;58696;52.134;5.500;2024-02-21T03:03:40;8.38;;;2.92;;
71042;SDS011;58696;52.134;5.500;2024-02-21T03:06:07;9.05;;;4.03;;
71042;SDS011;58696;52.134;5.500;2024-02-21T03:08:36;10.07;;;3.75;;
71042;SDS011;58696;52.134;5.500;2024-02-21T03:11:05;12.95;;;3.63;;
71042;SDS011;58696;52.134;5.500;2024-02-21T03:13:31;10.68;;;3.22;;
71042;SDS011;58696;52.134;5.500;2024-02-21T03:15:58;12.20;;;2.78;;
71042;SDS011;58696;52.134;5.500;2024-02-21T03:18:27;10.88;;;3.45;;
71042;SDS011;58696;52.134;5.500;2024-02-21T03:20:58;9.45;;;3.22;;
71042;SDS011;58696;52.134;5.500;2024-02-21T03:23:25;9.13;;;3.47;;
71042;SDS011;58696;52.134;5.500;2024-02-21T03:25:58;5.72;;;2.72;;
71042;SDS011;58696;52.134;5.500;2024-02-21T03:28:28;15.57;;;3.80;;
71042;SDS011;58696;52.134;5.500;2024-02-21T03:30:59;7.63;;;3.30;;
71042;SDS011;58696;52.134;5.500;2024-02-21T03:33:28;4.75;;;3.05;;
71042;SDS011;58696;52.134;5.500;2024-02-21T03:35:55;9.93;;;3.35;;
71042;SDS011;58696;52.134;5.500;2024-02-21T03:38:21;5.25;;;3.30;;
71042;SDS011;58696;52.134;5.500;2024-02-21T03:40:50;10.85;;;2.92;;
71042;SDS011;58696;52.134;5.500;2024-02-21T03:43:18;12.43;;;3.80;;
71042;SDS011;58696;52.134;5.500;2024-02-21T03:45:47;8.68;;;4.05;;
71042;SDS011;58696;52.134;5.500;2024-02-21T03:48:13;9.98;;;4.03;;
71042;SDS011;58696;52.134;5.500;2024-02-21T03:50:40;12.15;;;3.95;;
71042;SDS011;58696;52.134;5.500;2024-02-21T03:53:11;10.00;;;3.58;;
71042;SDS011;58696;52.134;5.500;2024-02-21T03:55:38;10.05;;;3.58;;
71042;SDS011;58696;52.134;5.500;2024-02-21T03:58:05;8.65;;;3.45;;
71042;SDS011;58696;52.134;5.500;2024-02-21T04:00:31;6.43;;;3.38;;
71042;SDS011;58696;52.134;5.500;2024-02-21T04:03:03;4.30;;;3.25;;
71042;SDS011;58696;52.134;5.500;2024-02-21T04:05:29;7.32;;;3.42;;
71042;SDS011;58696;52.134;5.500;2024-02-21T04:07:56;6.10;;;3.08;;
71042;SDS011;58696;52.134;5.500;2024-02-21T04:10:25;11.63;;;3.45;;
71042;SDS011;58696;52.134;5.500;2024-02-21T04:12:52;7.90;;;3.58;;
71042;SDS011;58696;52.134;5.500;2024-02-21T04:15:20;10.70;;;3.60;;
71042;SDS011;58696;52.134;5.500;2024-02-21T04:17:47;12.65;;;3.70;;
71042;SDS011;58696;52.134;5.500;2024-02-21T04:20:19;7.07;;;3.20;;
71042;SDS011;58696;52.134;5.500;2024-02-21T04:22:48;11.18;;;3.20;;
71042;SDS011;58696;52.134;5.500;2024-02-21T04:25:17;7.10;;;3.38;;
71042;SDS011;58696;52.134;5.500;2024-02-21T04:27:46;9.75;;;3.85;;
71042;SDS011;58696;52.134;5.500;2024-02-21T04:30:13;9.27;;;3.38;;
71042;SDS011;58696;52.134;5.500;2024-02-21T04:32:40;10.73;;;3.40;;
71042;SDS011;58696;52.134;5.500;2024-02-21T04:35:07;11.18;;;4.28;;
71042;SDS011;58696;52.134;5.500;2024-02-21T04:37:37;10.25;;;3.40;;
71042;SDS011;58696;52.134;5.500;2024-02-21T04:40:04;6.45;;;4.03;;
71042;SDS011;58696;52.134;5.500;2024-02-21T04:42:33;6.13;;;2.78;;
71042;SDS011;58696;52.134;5.500;2024-02-21T04:45:02;6.88;;;3.25;;
71042;SDS011;58696;52.134;5.500;2024-02-21T04:47:32;4.35;;;2.90;;
71042;SDS011;58696;52.134;5.500;2024-02-21T04:50:01;6.03;;;2.97;;
71042;SDS011;58696;52.134;5.500;2024-02-21T04:52:33;7.43;;;4.10;;
71042;SDS011;58696;52.134;5.500;2024-02-21T04:54:59;7.43;;;3.30;;
71042;SDS011;58696;52.134;5.500;2024-02-21T04:57:26;7.20;;;3.35;;
71042;SDS011;58696;52.134;5.500;2024-02-21T04:59:57;7.25;;;3.33;;
71042;SDS011;58696;52.134;5.500;2024-02-21T05:02:26;9.25;;;3.50;;
71042;SDS011;58696;52.134;5.500;2024-02-21T05:04:56;9.23;;;3.70;;
71042;SDS011;58696;52.134;5.500;2024-02-21T05:07:24;7.20;;;3.85;;
71042;SDS011;58696;52.134;5.500;2024-02-21T05:09:56;7.63;;;3.78;;
71042;SDS011;58696;52.134;5.500;2024-02-21T05:12:22;9.75;;;3.83;;
71042;SDS011;58696;52.134;5.500;2024-02-21T05:14:51;6.15;;;3.97;;
71042;SDS011;58696;52.134;5.500;2024-02-21T05:17:23;5.30;;;3.72;;
71042;SDS011;58696;52.134;5.500;2024-02-21T05:19:50;11.93;;;3.90;;
71042;SDS011;58696;52.134;5.500;2024-02-21T05:22:16;6.65;;;3.55;;
71042;SDS011;58696;52.134;5.500;2024-02-21T05:24:46;8.43;;;3.97;;
71042;SDS011;58696;52.134;5.500;2024-02-21T05:27:14;10.93;;;4.53;;
71042;SDS011;58696;52.134;5.500;2024-02-21T05:29:43;9.60;;;3.58;;
71042;SDS011;58696;52.134;5.500;2024-02-21T05:32:15;12.02;;;4.15;;
71042;SDS011;58696;52.134;5.500;2024-02-21T05:34:42;6.47;;;3.72;;
71042;SDS011;58696;52.134;5.500;2024-02-21T05:37:09;5.82;;;3.15;;
71042;SDS011;58696;52.134;5.500;2024-02-21T05:39:36;5.18;;;3.15;;
71042;SDS011;58696;52.134;5.500;2024-02-21T05:42:02;10.30;;;4.00;;
71042;SDS011;58696;52.134;5.500;2024-02-21T05:44:34;4.18;;;3.35;;
71042;SDS011;58696;52.134;5.500;2024-02-21T05:47:01;7.25;;;3.67;;
71042;SDS011;58696;52.134;5.500;2024-02-21T05:49:30;7.13;;;4.07;;
71042;SDS011;58696;52.134;5.500;2024-02-21T05:51:56;8.38;;;4.03;;
71042;SDS011;58696;52.134;5.500;2024-02-21T05:54:25;5.97;;;3.17;;
71042;SDS011;58696;52.134;5.500;2024-02-21T05:56:54;4.82;;;3.13;;
71042;SDS011;58696;52.134;5.500;2024-02-21T05:59:23;6.45;;;3.50;;
71042;SDS011;58696;52.134;5.500;2024-02-21T06:01:58;12.73;;;4.20;;
71042;SDS011;58696;52.134;5.500;2024-02-21T06:04:26;7.00;;;3.65;;
71042;SDS011;58696;52.134;5.500;2024-02-21T06:06:58;6.90;;;3.95;;
71042;SDS011;58696;52.134;5.500;2024-02-21T06:09:24;7.80;;;4.25;;
71042;SDS011;58696;52.134;5.500;2024-02-21T06:11:56;16.75;;;4.32;;
71042;SDS011;58696;52.134;5.500;2024-02-21T06:14:24;5.10;;;3.80;;
71042;SDS011;58696;52.134;5.500;2024-02-21T06:16:51;11.45;;;4.97;;
71042;SDS011;58696;52.134;5.500;2024-02-21T06:19:18;14.55;;;5.38;;
71042;SDS011;58696;52.134;5.500;2024-02-21T06:21:49;11.68;;;4.97;;
71042;SDS011;58696;52.134;5.500;2024-02-21T06:24:18;7.18;;;4.30;;
71042;SDS011;58696;52.134;5.500;2024-02-21T06:26:45;9.38;;;4.90;;
71042;SDS011;58696;52.134;5.500;2024-02-21T06:29:16;12.25;;;5.20;;
71042;SDS011;58696;52.134;5.500;2024-02-21T06:31:42;10.68;;;4.93;;
71042;SDS011;58696;52.134;5.500;2024-02-21T06:34:09;12.30;;;5.70;;
71042;SDS011;58696;52.134;5.500;2024-02-21T06:36:38;9.48;;;5.60;;
71042;SDS011;58696;52.134;5.500;2024-02-21T06:39:07;13.90;;;5.97;;
71042;SDS011;58696;52.134;5.500;2024-02-21T06:41:34;11.40;;;6.15;;
71042;SDS011;58696;52.134;5.500;2024-02-21T06:44:01;12.50;;;5.95;;
71042;SDS011;58696;52.134;5.500;2024-02-21T06:46:29;17.52;;;7.70;;
71042;SDS011;58696;52.134;5.500;2024-02-21T06:49:00;14.10;;;6.75;;
71042;SDS011;58696;52.134;5.500;2024-02-21T06:51:32;9.80;;;6.38;;
71042;SDS011;58696;52.134;5.500;2024-02-21T06:53:59;11.65;;;6.38;;
71042;SDS011;58696;52.134;5.500;2024-02-21T06:56:28;15.73;;;7.80;;
71042;SDS011;58696;52.134;5.500;2024-02-21T06:58:58;18.73;;;7.03;;
71042;SDS011;58696;52.134;5.500;2024-02-21T07:01:27;18.25;;;7.90;;
71042;SDS011;58696;52.134;5.500;2024-02-21T07:03:56;11.35;;;6.55;;
71042;SDS011;58696;52.134;5.500;2024-02-21T07:06:27;15.43;;;6.85;;
71042;SDS011;58696;52.134;5.500;2024-02-21T07:08:56;11.88;;;7.18;;
71042;SDS011;58696;52.134;5.500;2024-02-21T07:11:22;15.95;;;7.13;;
71042;SDS011;58696;52.134;5.500;2024-02-21T07:32:09;14.57;;;6.03;;
71042;SDS011;58696;52.134;5.500;2024-02-21T07:34:36;13.88;;;6.38;;
71042;SDS011;58696;52.134;5.500;2024-02-21T07:37:05;16.50;;;6.93;;
71042;SDS011;58696;52.134;5.500;2024-02-21T07:39:35;13.00;;;6.47;;
71042;SDS011;58696;52.134;5.500;2024-02-21T07:42:03;18.17;;;6.63;;
71042;SDS011;58696;52.134;5.500;2024-02-21T07:44:32;13.00;;;6.57;;
71042;SDS011;58696;52.134;5.500;2024-02-21T07:46:58;15.40;;;6.75;;
71042;SDS011;58696;52.134;5.500;2024-02-21T07:49:25;11.50;;;5.47;;
71042;SDS011;58696;52.134;5.500;2024-02-21T07:51:54;9.45;;;5.57;;
71042;SDS011;58696;52.134;5.500;2024-02-21T07:54:21;15.10;;;6.47;;
71042;SDS011;58696;52.134;5.500;2024-02-21T07:56:52;12.32;;;5.72;;
71042;SDS011;58696;52.134;5.500;2024-02-21T07:59:19;13.70;;;6.03;;
71042;SDS011;58696;52.134;5.500;2024-02-21T08:01:45;15.45;;;5.85;;
71042;SDS011;58696;52.134;5.500;2024-02-21T08:04:14;13.30;;;5.50;;
71042;SDS011;58696;52.134;5.500;2024-02-21T08:06:45;8.48;;;4.97;;
71042;SDS011;58696;52.134;5.500;2024-02-21T08:09:14;8.68;;;5.30;;
71042;SDS011;58696;52.134;5.500;2024-02-21T08:11:43;12.50;;;5.80;;
71042;SDS011;58696;52.134;5.500;2024-02-21T08:14:10;11.65;;;5.70;;
71042;SDS011;58696;52.134;5.500;2024-02-21T08:16:36;12.65;;;5.88;;
71042;SDS011;58696;52.134;5.500;2024-02-21T08:19:03;13.00;;;5.97;;
71042;SDS011;58696;52.134;5.500;2024-02-21T08:21:30;8.35;;;5.32;;
71042;SDS011;58696;52.134;5.500;2024-02-21T08:23:57;9.75;;;5.70;;
71042;SDS011;58696;52.134;5.500;2024-02-21T08:26:25;12.20;;;5.55;;
71042;SDS011;58696;52.134;5.500;2024-02-21T08:28:59;11.02;;;5.60;;
71042;SDS011;58696;52.134;5.500;2024-02-21T08:31:27;13.65;;;5.45;;
71042;SDS011;58696;52.134;5.500;2024-02-21T08:34:00;9.10;;;5.55;;
71042;SDS011;58696;52.134;5.500;2024-02-21T08:36:30;12.00;;;6.15;;
71042;SDS011;58696;52.134;5.500;2024-02-21T08:38:59;12.73;;;5.80;;
71042;SDS011;58696;52.134;5.500;2024-02-21T08:41:32;11.30;;;6.15;;
71042;SDS011;58696;52.134;5.500;2024-02-21T08:44:19;12.98;;;5.97;;
71042;SDS011;58696;52.134;5.500;2024-02-21T08:46:48;10.70;;;5.75;;
71042;SDS011;58696;52.134;5.500;2024-02-21T08:49:17;10.45;;;5.88;;
71042;SDS011;58696;52.134;5.500;2024-02-21T08:51:47;10.25;;;5.68;;
71042;SDS011;58696;52.134;5.500;2024-02-21T08:54:14;9.98;;;5.65;;
71042;SDS011;58696;52.134;5.500;2024-02-21T08:56:43;11.23;;;6.20;;
71042;SDS011;58696;52.134;5.500;2024-02-21T08:59:09;8.02;;;5.60;;
71042;SDS011;58696;52.134;5.500;2024-02-21T09:01:36;9.68;;;5.40;;
71042;SDS011;58696;52.134;5.500;2024-02-21T09:04:05;10.52;;;5.85;;
71042;SDS011;58696;52.134;5.500;2024-02-21T09:06:32;9.07;;;5.38;;
71042;SDS011;58696;52.134;5.500;2024-02-21T09:11:27;10.60;;;5.20;;
71042;SDS011;58696;52.134;5.500;2024-02-21T09:13:55;10.82;;;5.55;;
71042;SDS011;58696;52.134;5.500;2024-02-21T09:16:22;10.85;;;4.80;;
71042;SDS011;58696;52.134;5.500;2024-02-21T09:18:50;8.30;;;5.03;;
71042;SDS011;58696;52.134;5.500;2024-02-21T09:21:16;13.73;;;5.93;;
71042;SDS011;58696;52.134;5.500;2024-02-21T09:23:45;9.88;;;5.32;;
71042;SDS011;58696;52.134;5.500;2024-02-21T09:26:14;11.32;;;5.22;;
71042;SDS011;58696;52.134;5.500;2024-02-21T09:28:43;10.15;;;5.28;;
71042;SDS011;58696;52.134;5.500;2024-02-21T09:31:13;11.05;;;5.00;;
71042;SDS011;58696;52.134;5.500;2024-02-21T09:33:39;12.68;;;5.78;;
71042;SDS011;58696;52.134;5.500;2024-02-21T09:36:09;10.23;;;5.22;;
71042;SDS011;58696;52.134;5.500;2024-02-21T09:38:35;10.20;;;4.32;;
71042;SDS011;58696;52.134;5.500;2024-02-21T09:43:41;12.02;;;5.82;;
71042;SDS011;58696;52.134;5.500;2024-02-21T09:46:08;9.52;;;5.32;;
71042;SDS011;58696;52.134;5.500;2024-02-21T09:49:06;7.10;;;4.28;;
71042;SDS011;58696;52.134;5.500;2024-02-21T09:51:35;10.82;;;4.95;;
71042;SDS011;58696;52.134;5.500;2024-02-21T09:54:07;9.27;;;4.60;;
71042;SDS011;58696;52.134;5.500;2024-02-21T09:56:42;8.90;;;4.40;;
71042;SDS011;58696;52.134;5.500;2024-02-21T09:59:11;10.38;;;4.70;;
71042;SDS011;58696;52.134;5.500;2024-02-21T10:01:37;8.95;;;4.07;;
71042;SDS011;58696;52.134;5.500;2024-02-21T10:04:04;6.65;;;3.97;;
71042;SDS011;58696;52.134;5.500;2024-02-21T10:06:32;7.55;;;4.72;;
71042;SDS011;58696;52.134;5.500;2024-02-21T10:09:06;6.72;;;4.38;;
71042;SDS011;58696;52.134;5.500;2024-02-21T10:11:33;7.68;;;4.22;;
71042;SDS011;58696;52.134;5.500;2024-02-21T10:14:08;7.55;;;3.95;;
71042;SDS011;58696;52.134;5.500;2024-02-21T10:16:37;6.57;;;3.85;;
71042;SDS011;58696;52.134;5.500;2024-02-21T10:19:06;7.82;;;4.22;;
71042;SDS011;58696;52.134;5.500;2024-02-21T10:24:44;12.18;;;4.60;;
71042;SDS011;58696;52.134;5.500;2024-02-21T10:27:11;6.55;;;3.85;;
71042;SDS011;58696;52.134;5.500;2024-02-21T10:29:39;4.97;;;3.30;;
71042;SDS011;58696;52.134;5.500;2024-02-21T10:32:10;7.47;;;3.58;;
71042;SDS011;58696;52.134;5.500;2024-02-21T10:34:39;5.95;;;3.70;;
71042;SDS011;58696;52.134;5.500;2024-02-21T10:37:12;4.63;;;3.60;;
71042;SDS011;58696;52.134;5.500;2024-02-21T10:39:39;4.65;;;3.28;;
71042;SDS011;58696;52.134;5.500;2024-02-21T10:42:11;14.23;;;3.63;;
71042;SDS011;58696;52.134;5.500;2024-02-21T10:44:39;5.00;;;3.47;;
71042;SDS011;58696;52.134;5.500;2024-02-21T10:47:11;5.93;;;3.30;;
71042;SDS011;58696;52.134;5.500;2024-02-21T10:49:44;7.03;;;3.45;;
71042;SDS011;58696;52.134;5.500;2024-02-21T10:52:17;5.30;;;2.90;;
71042;SDS011;58696;52.134;5.500;2024-02-21T10:55:07;6.10;;;2.75;;
71042;SDS011;58696;52.134;5.500;2024-02-21T10:57:40;7.75;;;3.03;;
71042;SDS011;58696;52.134;5.500;2024-02-21T11:00:11;5.43;;;3.03;;
71042;SDS011;58696;52.134;5.500;2024-02-21T11:02:41;5.00;;;3.08;;
71042;SDS011;58696;52.134;5.500;2024-02-21T11:05:10;12.70;;;3.17;;
71042;SDS011;58696;52.134;5.500;2024-02-21T11:07:39;3.47;;;3.00;;
71042;SDS011;58696;52.134;5.500;2024-02-21T11:10:24;4.03;;;2.67;;
71042;SDS011;58696;52.134;5.500;2024-02-21T11:12:52;4.60;;;3.05;;
71042;SDS011;58696;52.134;5.500;2024-02-21T11:15:25;5.22;;;2.75;;
71042;SDS011;58696;52.134;5.500;2024-02-21T11:17:55;4.93;;;3.38;;
71042;SDS011;58696;52.134;5.500;2024-02-21T11:20:33;4.22;;;3.05;;
71042;SDS011;58696;52.134;5.500;2024-02-21T11:23:01;3.92;;;3.05;;
71042;SDS011;58696;52.134;5.500;2024-02-21T11:25:28;6.82;;;3.38;;
71042;SDS011;58696;52.134;5.500;2024-02-21T11:28:03;3.60;;;3.03;;
71042;SDS011;58696;52.134;5.500;2024-02-21T11:30:36;6.35;;;3.60;;
71042;SDS011;58696;52.134;5.500;2024-02-21T11:33:07;4.65;;;3.00;;
71042;SDS011;58696;52.134;5.500;2024-02-21T11:35:34;5.68;;;3.55;;
71042;SDS011;58696;52.134;5.500;2024-02-21T11:40:45;5.97;;;3.60;;
71042;SDS011;58696;52.134;5.500;2024-02-21T11:43:13;5.68;;;3.60;;
71042;SDS011;58696;52.134;5.500;2024-02-21T11:45:39;9.30;;;4.40;;
71042;SDS011;58696;52.134;5.500;2024-02-21T11:48:06;6.65;;;3.55;;
71042;SDS011;58696;52.134;5.500;2024-02-21T11:50:36;7.53;;;4.33;;
71042;SDS011;58696;52.134;5.500;2024-02-21T11:53:05;7.82;;;4.10;;
71042;SDS011;58696;52.134;5.500;2024-02-21T11:55:37;5.97;;;3.72;;
71042;SDS011;58696;52.134;5.500;2024-02-21T11:58:04;5.60;;;3.85;;
71042;SDS011;58696;52.134;5.500;2024-02-21T12:00:31;5.88;;;3.72;;
71042;SDS011;58696;52.134;5.500;2024-02-21T12:02:57;5.28;;;3.92;;
71042;SDS011;58696;52.134;5.500;2024-02-21T12:05:28;6.68;;;3.97;;
71042;SDS011;58696;52.134;5.500;2024-02-21T12:07:55;4.80;;;2.83;;
71042;SDS011;58696;52.134;5.500;2024-02-21T12:10:28;21.77;;;4.55;;
71042;SDS011;58696;52.134;5.500;2024-02-21T12:13:07;7.90;;;4.60;;
71042;SDS011;58696;52.134;5.500;2024-02-21T12:15:38;6.25;;;3.50;;
71042;SDS011;58696;52.134;5.500;2024-02-21T12:18:10;5.32;;;3.80;;
71042;SDS011;58696;52.134;5.500;2024-02-21T12:20:39;5.00;;;3.33;;
71042;SDS011;58696;52.134;5.500;2024-02-21T12:23:11;11.32;;;3.72;;
71042;SDS011;58696;52.134;5.500;2024-02-21T12:25:38;10.13;;;4.50;;
71042;SDS011;58696;52.134;5.500;2024-02-21T12:28:08;6.68;;;3.35;;
71042;SDS011;58696;52.134;5.500;2024-02-21T12:30:37;8.40;;;3.85;;
71042;SDS011;58696;52.134;5.500;2024-02-21T12:33:06;6.22;;;3.50;;
71042;SDS011;58696;52.134;5.500;2024-02-21T12:35:33;9.38;;;3.85;;
71042;SDS011;58696;52.134;5.500;2024-02-21T12:38:02;6.00;;;3.65;;
71042;SDS011;58696;52.134;5.500;2024-02-21T12:40:32;4.90;;;3.20;;
71042;SDS011;58696;52.134;5.500;2024-02-21T12:42:59;4.82;;;3.33;;
71042;SDS011;58696;52.134;5.500;2024-02-21T12:45:29;4.35;;;3.30;;
71042;SDS011;58696;52.134;5.500;2024-02-21T12:47:55;5.13;;;3.40;;
71042;SDS011;58696;52.134;5.500;2024-02-21T12:50:24;8.35;;;3.50;;
71042;SDS011;58696;52.134;5.500;2024-02-21T12:52:55;5.90;;;3.13;;
71042;SDS011;58696;52.134;5.500;2024-02-21T12:55:25;7.55;;;3.40;;
71042;SDS011;58696;52.134;5.500;2024-02-21T12:57:51;9.68;;;4.40;;
71042;SDS011;58696;52.134;5.500;2024-02-21T13:00:18;6.07;;;3.30;;
71042;SDS011;58696;52.134;5.500;2024-02-21T13:02:47;4.35;;;3.05;;
71042;SDS011;58696;52.134;5.500;2024-02-21T13:05:16;5.68;;;2.92;;
71042;SDS011;58696;52.134;5.500;2024-02-21T13:07:45;4.43;;;3.20;;
71042;SDS011;58696;52.134;5.500;2024-02-21T13:10:12;5.15;;;3.33;;
71042;SDS011;58696;52.134;5.500;2024-02-21T13:12:41;6.22;;;3.63;;
71042;SDS011;58696;52.134;5.500;2024-02-21T13:15:10;8.27;;;3.38;;
71042;SDS011;58696;52.134;5.500;2024-02-21T13:17:39;4.28;;;2.60;;
71042;SDS011;58696;52.134;5.500;2024-02-21T13:20:08;6.75;;;2.85;;
71042;SDS011;58696;52.134;5.500;2024-02-21T13:22:41;7.50;;;3.35;;
71042;SDS011;58696;52.134;5.500;2024-02-21T13:25:10;3.97;;;2.75;;
71042;SDS011;58696;52.134;5.500;2024-02-21T13:27:36;7.70;;;3.30;;
71042;SDS011;58696;52.134;5.500;2024-02-21T13:30:03;10.10;;;3.03;;
71042;SDS011;58696;52.134;5.500;2024-02-21T13:32:35;6.22;;;2.83;;
71042;SDS011;58696;52.134;5.500;2024-02-21T13:35:04;6.57;;;2.78;;
71042;SDS011;58696;52.134;5.500;2024-02-21T13:37:31;5.82;;;2.80;;
71042;SDS011;58696;52.134;5.500;2024-02-21T13:39:58;10.68;;;3.20;;
71042;SDS011;58696;52.134;5.500;2024-02-21T13:42:25;5.32;;;3.30;;
71042;SDS011;58696;52.134;5.500;2024-02-21T13:44:53;3.90;;;2.97;;
71042;SDS011;58696;52.134;5.500;2024-02-21T13:47:22;6.15;;;2.92;;
71042;SDS011;58696;52.134;5.500;2024-02-21T13:49:51;8.93;;;3.17;;
71042;SDS011;58696;52.134;5.500;2024-02-21T13:52:18;6.97;;;3.38;;
71042;SDS011;58696;52.134;5.500;2024-02-21T13:54:50;8.38;;;2.90;;
71042;SDS011;58696;52.134;5.500;2024-02-21T13:57:19;5.20;;;2.45;;
71042;SDS011;58696;52.134;5.500;2024-02-21T13:59:48;3.67;;;2.60;;
71042;SDS011;58696;52.134;5.500;2024-02-21T14:02:18;5.30;;;2.75;;
71042;SDS011;58696;52.134;5.500;2024-02-21T14:04:44;5.18;;;2.65;;
71042;SDS011;58696;52.134;5.500;2024-02-21T14:07:11;5.28;;;2.50;;
71042;SDS011;58696;52.134;5.500;2024-02-21T14:09:37;10.55;;;2.90;;
71042;SDS011;58696;52.134;5.500;2024-02-21T14:12:04;5.63;;;2.60;;
71042;SDS011;58696;52.134;5.500;2024-02-21T14:14:35;6.72;;;2.85;;
71042;SDS011;58696;52.134;5.500;2024-02-21T14:17:05;3.00;;;2.10;;
71042;SDS011;58696;52.134;5.500;2024-02-21T14:19:32;5.90;;;2.42;;
71042;SDS011;58696;52.134;5.500;2024-02-21T14:22:01;7.93;;;2.60;;
71042;SDS011;58696;52.134;5.500;2024-02-21T14:24:31;5.80;;;2.10;;
71042;SDS011;58696;52.134;5.500;2024-02-21T14:26:59;4.20;;;2.60;;
71042;SDS011;58696;52.134;5.500;2024-02-21T14:29:26;5.30;;;2.45;;
71042;SDS011;58696;52.134;5.500;2024-02-21T14:31:57;3.35;;;2.15;;
71042;SDS011;58696;52.134;5.500;2024-02-21T14:34:24;4.22;;;2.45;;
71042;SDS011;58696;52.134;5.500;2024-02-21T14:36:53;7.15;;;3.00;;
71042;SDS011;58696;52.134;5.500;2024-02-21T14:39:20;5.50;;;2.40;;
71042;SDS011;58696;52.134;5.500;2024-02-21T14:41:46;8.15;;;2.92;;
71042;SDS011;58696;52.134;5.500;2024-02-21T14:44:15;3.13;;;1.73;;
71042;SDS011;58696;52.134;5.500;2024-02-21T14:46:43;5.20;;;2.30;;
71042;SDS011;58696;52.134;5.500;2024-02-21T14:49:10;5.55;;;3.08;;
71042;SDS011;58696;52.134;5.500;2024-02-21T14:54:04;4.05;;;1.90;;
71042;SDS011;58696;52.134;5.500;2024-02-21T14:56:34;5.68;;;2.35;;
71042;SDS011;58696;52.134;5.500;2024-02-21T14:59:03;7.97;;;2.90;;
71042;SDS011;58696;52.134;5.500;2024-02-21T15:01:40;5.22;;;2.17;;
71042;SDS011;58696;52.134;5.500;2024-02-21T15:04:07;9.85;;;2.20;;
71042;SDS011;58696;52.134;5.500;2024-02-21T15:06:37;5.93;;;2.40;;
71042;SDS011;58696;52.134;5.500;2024-02-21T15:09:04;7.63;;;1.83;;
71042;SDS011;58696;52.134;5.500;2024-02-21T15:14:01;4.03;;;2.00;;
71042;SDS011;58696;52.134;5.500;2024-02-21T15:16:28;4.82;;;2.05;;
71042;SDS011;58696;52.134;5.500;2024-02-21T15:18:55;2.92;;;1.98;;
71042;SDS011;58696;52.134;5.500;2024-02-21T15:21:24;6.95;;;2.20;;
71042;SDS011;58696;52.134;5.500;2024-02-21T15:23:56;5.80;;;2.45;;
71042;SDS011;58696;52.134;5.500;2024-02-21T15:26:27;6.47;;;2.30;;
71042;SDS011;58696;52.134;5.500;2024-02-21T15:29:01;4.22;;;2.20;;